sensor_id;sensor_type;location;lat;lon;timestamp;P1;durP1;ratioP1;P2;durP2;ratioP2
1829;SDS011;914;48.118;11.600;2022-08-30T00:01:06;9.60;;;8.70;;
1829;SDS011;914;48.118;11.600;2022-08-30T00:03:36;9.17;;;8.37;;
1829;SDS011;914;48.118;11.600;2022-08-30T00:06:05;10.13;;;8.50;;
1829;SDS011;914;48.118;11.600;2022-08-30T00:08:32;9.57;;;8.67;;
1829;SDS011;914;48.118;11.600;2022-08-30T00:10:58;8.83;;;7.93;;
1829;SDS011;914;48.118;11.600;2022-08-30T00:13:25;9.10;;;8.30;;
1829;SDS011;914;48.118;11.600;2022-08-30T00:15:51;9.60;;;8.20;;
1829;SDS011;914;48.118;11.600;2022-08-30T00:18:17;9.60;;;8.60;;
1829;SDS011;914;48.118;11.600;2022-08-30T00:20:45;8.97;;;8.17;;
1829;SDS011;914;48.118;11.600;2022-08-30T00:23:12;10.70;;;9.60;;
1829;SDS011;914;48.118;11.600;2022-08-30T00:25:38;11.87;;;9.83;;
1829;SDS011;914;48.118;11.600;2022-08-30T00:28:05;10.23;;;8.77;;
1829;SDS011;914;48.118;11.600;2022-08-30T00:30:31;10.33;;;8.87;;
1829;SDS011;914;48.118;11.600;2022-08-30T00:32:56;11.07;;;8.83;;
1829;SDS011;914;48.118;11.600;2022-08-30T00:35:23;10.33;;;9.30;;
1829;SDS011;914;48.118;11.600;2022-08-30T00:37:49;11.80;;;10.13;;
1829;SDS011;914;48.118;11.600;2022-08-30T00:40:16;10.00;;;9.10;;
1829;SDS011;914;48.118;11.600;2022-08-30T00:42:44;11.27;;;9.50;;
1829;SDS011;914;48.118;11.600;2022-08-30T00:45:19;9.10;;;8.30;;
1829;SDS011;914;48.118;11.600;2022-08-30T00:47:49;10.03;;;9.10;;
1829;SDS011;914;48.118;11.600;2022-08-30T00:50:18;8.97;;;8.23;;
1829;SDS011;914;48.118;11.600;2022-08-30T00:52:46;10.53;;;8.70;;
1829;SDS011;914;48.118;11.600;2022-08-30T00:55:15;10.10;;;9.07;;
1829;SDS011;914;48.118;11.600;2022-08-30T00:57:42;9.43;;;8.60;;
1829;SDS011;914;48.118;11.600;2022-08-30T01:00:10;10.77;;;8.90;;
1829;SDS011;914;48.118;11.600;2022-08-30T01:02:36;10.50;;;8.83;;
1829;SDS011;914;48.118;11.600;2022-08-30T01:05:03;10.03;;;8.73;;
1829;SDS011;914;48.118;11.600;2022-08-30T01:07:32;9.23;;;8.30;;
1829;SDS011;914;48.118;11.600;2022-08-30T01:09:59;9.33;;;8.43;;
1829;SDS011;914;48.118;11.600;2022-08-30T01:12:26;10.70;;;8.00;;
1829;SDS011;914;48.118;11.600;2022-08-30T01:14:54;8.87;;;8.10;;
1829;SDS011;914;48.118;11.600;2022-08-30T01:17:20;9.17;;;8.37;;
1829;SDS011;914;48.118;11.600;2022-08-30T01:19:48;8.70;;;7.90;;
1829;SDS011;914;48.118;11.600;2022-08-30T01:22:28;9.67;;;8.77;;
1829;SDS011;914;48.118;11.600;2022-08-30T01:25:06;11.23;;;8.30;;
1829;SDS011;914;48.118;11.600;2022-08-30T01:27:33;10.50;;;8.83;;
1829;SDS011;914;48.118;11.600;2022-08-30T01:30:03;9.03;;;8.23;;
1829;SDS011;914;48.118;11.600;2022-08-30T01:32:30;9.30;;;8.07;;
1829;SDS011;914;48.118;11.600;2022-08-30T01:35:01;11.33;;;8.17;;
1829;SDS011;914;48.118;11.600;2022-08-30T01:37:29;9.10;;;8.20;;
1829;SDS011;914;48.118;11.600;2022-08-30T01:39:57;10.23;;;7.97;;
1829;SDS011;914;48.118;11.600;2022-08-30T01:42:24;8.67;;;7.77;;
1829;SDS011;914;48.118;11.600;2022-08-30T01:44:49;9.20;;;8.43;;
1829;SDS011;914;48.118;11.600;2022-08-30T01:47:15;8.47;;;7.77;;
1829;SDS011;914;48.118;11.600;2022-08-30T01:49:43;9.07;;;8.23;;
1829;SDS011;914;48.118;11.600;2022-08-30T01:52:12;8.93;;;8.10;;
1829;SDS011;914;48.118;11.600;2022-08-30T01:54:40;9.27;;;8.43;;
1829;SDS011;914;48.118;11.600;2022-08-30T01:57:08;8.17;;;7.40;;
1829;SDS011;914;48.118;11.600;2022-08-30T01:59:35;9.60;;;8.70;;
1829;SDS011;914;48.118;11.600;2022-08-30T02:02:02;8.43;;;7.73;;
1829;SDS011;914;48.118;11.600;2022-08-30T02:04:28;9.23;;;8.43;;
1829;SDS011;914;48.118;11.600;2022-08-30T02:06:54;10.00;;;8.53;;
1829;SDS011;914;48.118;11.600;2022-08-30T02:09:20;9.07;;;8.27;;
1829;SDS011;914;48.118;11.600;2022-08-30T02:11:45;11.17;;;7.90;;
1829;SDS011;914;48.118;11.600;2022-08-30T02:14:12;9.60;;;7.80;;
1829;SDS011;914;48.118;11.600;2022-08-30T02:16:38;9.40;;;8.10;;
1829;SDS011;914;48.118;11.600;2022-08-30T02:19:05;9.10;;;8.30;;
1829;SDS011;914;48.118;11.600;2022-08-30T02:21:31;15.80;;;13.90;;
1829;SDS011;914;48.118;11.600;2022-08-30T02:23:57;15.17;;;13.77;;
1829;SDS011;914;48.118;11.600;2022-08-30T02:26:24;9.40;;;8.40;;
1829;SDS011;914;48.118;11.600;2022-08-30T02:28:50;8.80;;;8.00;;
1829;SDS011;914;48.118;11.600;2022-08-30T02:31:17;9.00;;;8.20;;
1829;SDS011;914;48.118;11.600;2022-08-30T02:33:44;10.10;;;8.50;;
1829;SDS011;914;48.118;11.600;2022-08-30T02:36:10;9.50;;;8.60;;
1829;SDS011;914;48.118;11.600;2022-08-30T02:38:35;9.57;;;8.53;;
1829;SDS011;914;48.118;11.600;2022-08-30T02:41:02;10.00;;;8.97;;
1829;SDS011;914;48.118;11.600;2022-08-30T02:43:28;9.27;;;8.37;;
1829;SDS011;914;48.118;11.600;2022-08-30T02:45:53;9.60;;;8.70;;
1829;SDS011;914;48.118;11.600;2022-08-30T02:48:19;8.87;;;7.97;;
1829;SDS011;914;48.118;11.600;2022-08-30T02:50:46;9.50;;;8.00;;
1829;SDS011;914;48.118;11.600;2022-08-30T02:53:13;8.77;;;7.97;;
1829;SDS011;914;48.118;11.600;2022-08-30T02:55:39;8.83;;;8.03;;
1829;SDS011;914;48.118;11.600;2022-08-30T02:58:05;9.73;;;8.60;;
1829;SDS011;914;48.118;11.600;2022-08-30T03:00:30;9.23;;;8.40;;
1829;SDS011;914;48.118;11.600;2022-08-30T03:02:56;10.30;;;8.63;;
1829;SDS011;914;48.118;11.600;2022-08-30T03:05:22;8.97;;;8.10;;
1829;SDS011;914;48.118;11.600;2022-08-30T03:07:48;8.20;;;7.50;;
1829;SDS011;914;48.118;11.600;2022-08-30T03:10:14;8.67;;;7.87;;
1829;SDS011;914;48.118;11.600;2022-08-30T03:12:40;8.47;;;7.73;;
1829;SDS011;914;48.118;11.600;2022-08-30T03:15:07;8.70;;;7.80;;
1829;SDS011;914;48.118;11.600;2022-08-30T03:17:34;8.63;;;7.83;;
1829;SDS011;914;48.118;11.600;2022-08-30T03:20:00;9.23;;;8.33;;
1829;SDS011;914;48.118;11.600;2022-08-30T03:22:26;9.07;;;8.17;;
1829;SDS011;914;48.118;11.600;2022-08-30T03:24:53;14.77;;;9.10;;
1829;SDS011;914;48.118;11.600;2022-08-30T03:27:22;9.57;;;7.90;;
1829;SDS011;914;48.118;11.600;2022-08-30T03:29:48;9.57;;;8.10;;
1829;SDS011;914;48.118;11.600;2022-08-30T03:32:13;9.30;;;8.30;;
1829;SDS011;914;48.118;11.600;2022-08-30T03:34:39;10.10;;;8.60;;
1829;SDS011;914;48.118;11.600;2022-08-30T03:37:04;8.90;;;8.03;;
1829;SDS011;914;48.118;11.600;2022-08-30T03:39:30;8.27;;;7.47;;
1829;SDS011;914;48.118;11.600;2022-08-30T03:41:56;8.80;;;8.00;;
1829;SDS011;914;48.118;11.600;2022-08-30T03:44:21;9.60;;;7.63;;
1829;SDS011;914;48.118;11.600;2022-08-30T03:46:47;8.60;;;7.90;;
1829;SDS011;914;48.118;11.600;2022-08-30T03:49:12;10.07;;;7.60;;
1829;SDS011;914;48.118;11.600;2022-08-30T03:51:38;9.53;;;7.70;;
1829;SDS011;914;48.118;11.600;2022-08-30T03:54:04;8.43;;;7.63;;
1829;SDS011;914;48.118;11.600;2022-08-30T03:56:30;8.73;;;7.77;;
1829;SDS011;914;48.118;11.600;2022-08-30T03:58:55;8.57;;;7.30;;
1829;SDS011;914;48.118;11.600;2022-08-30T04:01:21;9.30;;;7.77;;
1829;SDS011;914;48.118;11.600;2022-08-30T04:03:47;10.07;;;7.50;;
1829;SDS011;914;48.118;11.600;2022-08-30T04:06:12;8.07;;;7.37;;
1829;SDS011;914;48.118;11.600;2022-08-30T04:08:38;8.67;;;7.77;;
1829;SDS011;914;48.118;11.600;2022-08-30T04:11:04;8.40;;;7.60;;
1829;SDS011;914;48.118;11.600;2022-08-30T04:13:31;8.40;;;7.70;;
1829;SDS011;914;48.118;11.600;2022-08-30T04:15:57;9.17;;;8.27;;
1829;SDS011;914;48.118;11.600;2022-08-30T04:18:23;8.53;;;7.77;;
1829;SDS011;914;48.118;11.600;2022-08-30T04:20:50;9.00;;;8.10;;
1829;SDS011;914;48.118;11.600;2022-08-30T04:23:17;8.60;;;7.80;;
1829;SDS011;914;48.118;11.600;2022-08-30T04:25:43;8.70;;;7.80;;
1829;SDS011;914;48.118;11.600;2022-08-30T04:28:09;8.17;;;7.27;;
1829;SDS011;914;48.118;11.600;2022-08-30T04:30:40;9.80;;;8.43;;
1829;SDS011;914;48.118;11.600;2022-08-30T04:33:06;8.77;;;7.83;;
1829;SDS011;914;48.118;11.600;2022-08-30T04:35:32;10.07;;;7.60;;
1829;SDS011;914;48.118;11.600;2022-08-30T04:37:58;8.60;;;7.80;;
1829;SDS011;914;48.118;11.600;2022-08-30T04:40:23;8.30;;;7.60;;
1829;SDS011;914;48.118;11.600;2022-08-30T04:42:49;8.73;;;7.90;;
1829;SDS011;914;48.118;11.600;2022-08-30T04:45:18;8.90;;;8.10;;
1829;SDS011;914;48.118;11.600;2022-08-30T04:47:45;9.20;;;8.23;;
1829;SDS011;914;48.118;11.600;2022-08-30T04:50:12;8.87;;;7.97;;
1829;SDS011;914;48.118;11.600;2022-08-30T04:52:40;8.60;;;7.80;;
1829;SDS011;914;48.118;11.600;2022-08-30T04:55:06;8.43;;;7.53;;
1829;SDS011;914;48.118;11.600;2022-08-30T04:57:32;10.53;;;8.17;;
1829;SDS011;914;48.118;11.600;2022-08-30T04:59:58;8.60;;;7.70;;
1829;SDS011;914;48.118;11.600;2022-08-30T05:02:24;8.87;;;8.07;;
1829;SDS011;914;48.118;11.600;2022-08-30T05:04:49;8.50;;;7.70;;
1829;SDS011;914;48.118;11.600;2022-08-30T05:07:34;7.73;;;7.03;;
1829;SDS011;914;48.118;11.600;2022-08-30T05:10:00;8.53;;;7.73;;
1829;SDS011;914;48.118;11.600;2022-08-30T05:12:27;8.57;;;7.77;;
1829;SDS011;914;48.118;11.600;2022-08-30T05:14:53;9.27;;;8.37;;
1829;SDS011;914;48.118;11.600;2022-08-30T05:17:19;8.30;;;7.60;;
1829;SDS011;914;48.118;11.600;2022-08-30T05:19:44;8.67;;;7.90;;
1829;SDS011;914;48.118;11.600;2022-08-30T05:22:10;8.47;;;7.57;;
1829;SDS011;914;48.118;11.600;2022-08-30T05:24:35;12.10;;;7.63;;
1829;SDS011;914;48.118;11.600;2022-08-30T05:27:01;8.90;;;7.80;;
1829;SDS011;914;48.118;11.600;2022-08-30T05:29:29;8.10;;;7.40;;
1829;SDS011;914;48.118;11.600;2022-08-30T05:31:55;8.73;;;7.67;;
1829;SDS011;914;48.118;11.600;2022-08-30T05:34:20;8.87;;;7.97;;
1829;SDS011;914;48.118;11.600;2022-08-30T05:36:46;8.70;;;6.90;;
1829;SDS011;914;48.118;11.600;2022-08-30T05:39:11;8.10;;;7.37;;
1829;SDS011;914;48.118;11.600;2022-08-30T05:41:37;9.30;;;7.30;;
1829;SDS011;914;48.118;11.600;2022-08-30T05:44:04;9.20;;;7.50;;
1829;SDS011;914;48.118;11.600;2022-08-30T05:46:30;8.40;;;7.40;;
1829;SDS011;914;48.118;11.600;2022-08-30T05:48:59;7.47;;;6.87;;
1829;SDS011;914;48.118;11.600;2022-08-30T05:51:27;9.33;;;7.17;;
1829;SDS011;914;48.118;11.600;2022-08-30T05:53:55;7.57;;;6.87;;
1829;SDS011;914;48.118;11.600;2022-08-30T05:56:23;11.27;;;7.33;;
1829;SDS011;914;48.118;11.600;2022-08-30T05:58:52;7.77;;;7.07;;
1829;SDS011;914;48.118;11.600;2022-08-30T06:01:28;7.80;;;7.10;;
1829;SDS011;914;48.118;11.600;2022-08-30T06:03:56;7.50;;;6.90;;
1829;SDS011;914;48.118;11.600;2022-08-30T06:06:26;7.60;;;6.50;;
1829;SDS011;914;48.118;11.600;2022-08-30T06:08:53;6.77;;;6.27;;
1829;SDS011;914;48.118;11.600;2022-08-30T06:11:19;8.40;;;6.90;;
1829;SDS011;914;48.118;11.600;2022-08-30T06:13:47;7.73;;;7.03;;
1829;SDS011;914;48.118;11.600;2022-08-30T06:16:15;8.57;;;7.37;;
1829;SDS011;914;48.118;11.600;2022-08-30T06:18:43;7.73;;;7.03;;
1829;SDS011;914;48.118;11.600;2022-08-30T06:21:14;6.90;;;6.30;;
1829;SDS011;914;48.118;11.600;2022-08-30T06:23:41;6.73;;;6.13;;
1829;SDS011;914;48.118;11.600;2022-08-30T06:26:06;6.60;;;6.07;;
1829;SDS011;914;48.118;11.600;2022-08-30T06:28:32;7.43;;;6.73;;
1829;SDS011;914;48.118;11.600;2022-08-30T06:30:58;7.53;;;6.83;;
1829;SDS011;914;48.118;11.600;2022-08-30T06:33:24;7.83;;;7.03;;
1829;SDS011;914;48.118;11.600;2022-08-30T06:35:50;7.77;;;6.80;;
1829;SDS011;914;48.118;11.600;2022-08-30T06:38:15;7.50;;;6.40;;
1829;SDS011;914;48.118;11.600;2022-08-30T06:40:41;7.03;;;6.27;;
1829;SDS011;914;48.118;11.600;2022-08-30T06:43:07;7.07;;;6.47;;
1829;SDS011;914;48.118;11.600;2022-08-30T06:45:33;7.30;;;6.37;;
1829;SDS011;914;48.118;11.600;2022-08-30T06:47:59;8.77;;;6.30;;
1829;SDS011;914;48.118;11.600;2022-08-30T06:50:26;8.73;;;6.20;;
1829;SDS011;914;48.118;11.600;2022-08-30T06:52:52;7.20;;;6.40;;
1829;SDS011;914;48.118;11.600;2022-08-30T06:55:17;6.73;;;6.03;;
1829;SDS011;914;48.118;11.600;2022-08-30T06:57:44;6.77;;;6.17;;
1829;SDS011;914;48.118;11.600;2022-08-30T07:00:11;7.03;;;6.33;;
1829;SDS011;914;48.118;11.600;2022-08-30T07:02:40;8.70;;;6.37;;
1829;SDS011;914;48.118;11.600;2022-08-30T07:05:06;8.30;;;6.63;;
1829;SDS011;914;48.118;11.600;2022-08-30T07:07:34;7.40;;;6.50;;
1829;SDS011;914;48.118;11.600;2022-08-30T07:10:01;6.53;;;5.93;;
1829;SDS011;914;48.118;11.600;2022-08-30T07:12:29;7.40;;;6.40;;
1829;SDS011;914;48.118;11.600;2022-08-30T07:14:54;7.72;;;6.70;;
1829;SDS011;914;48.118;11.600;2022-08-30T07:17:20;8.93;;;6.25;;
1829;SDS011;914;48.118;11.600;2022-08-30T07:20:04;8.02;;;6.43;;
1829;SDS011;914;48.118;11.600;2022-08-30T07:22:31;7.60;;;6.15;;
1829;SDS011;914;48.118;11.600;2022-08-30T07:24:57;6.67;;;5.40;;
1829;SDS011;914;48.118;11.600;2022-08-30T07:27:23;6.82;;;6.13;;
1829;SDS011;914;48.118;11.600;2022-08-30T07:29:49;12.70;;;6.40;;
1829;SDS011;914;48.118;11.600;2022-08-30T07:32:14;8.82;;;6.10;;
1829;SDS011;914;48.118;11.600;2022-08-30T07:34:40;9.63;;;6.47;;
1829;SDS011;914;48.118;11.600;2022-08-30T07:37:06;8.93;;;6.75;;
1829;SDS011;914;48.118;11.600;2022-08-30T07:39:32;7.70;;;6.15;;
1829;SDS011;914;48.118;11.600;2022-08-30T07:41:58;7.93;;;6.20;;
1829;SDS011;914;48.118;11.600;2022-08-30T07:44:23;9.15;;;5.95;;
1829;SDS011;914;48.118;11.600;2022-08-30T07:46:49;6.75;;;6.15;;
1829;SDS011;914;48.118;11.600;2022-08-30T07:49:15;7.75;;;6.60;;
1829;SDS011;914;48.118;11.600;2022-08-30T07:51:41;7.18;;;6.47;;
1829;SDS011;914;48.118;11.600;2022-08-30T07:54:06;9.05;;;6.80;;
1829;SDS011;914;48.118;11.600;2022-08-30T07:56:32;7.03;;;6.43;;
1829;SDS011;914;48.118;11.600;2022-08-30T07:58:59;7.45;;;6.75;;
1829;SDS011;914;48.118;11.600;2022-08-30T08:01:24;8.60;;;7.10;;
1829;SDS011;914;48.118;11.600;2022-08-30T08:03:50;6.95;;;6.00;;
1829;SDS011;914;48.118;11.600;2022-08-30T08:06:17;8.90;;;6.03;;
1829;SDS011;914;48.118;11.600;2022-08-30T08:08:44;14.05;;;6.22;;
1829;SDS011;914;48.118;11.600;2022-08-30T08:11:18;6.95;;;6.30;;
1829;SDS011;914;48.118;11.600;2022-08-30T08:13:47;7.43;;;6.38;;
1829;SDS011;914;48.118;11.600;2022-08-30T08:16:14;7.78;;;6.22;;
1829;SDS011;914;48.118;11.600;2022-08-30T08:18:39;8.48;;;6.30;;
1829;SDS011;914;48.118;11.600;2022-08-30T08:21:05;6.45;;;5.85;;
1829;SDS011;914;48.118;11.600;2022-08-30T08:23:31;7.20;;;6.28;;
1829;SDS011;914;48.118;11.600;2022-08-30T08:25:57;7.15;;;6.43;;
1829;SDS011;914;48.118;11.600;2022-08-30T08:28:22;9.23;;;6.15;;
1829;SDS011;914;48.118;11.600;2022-08-30T08:30:48;11.20;;;6.28;;
1829;SDS011;914;48.118;11.600;2022-08-30T08:33:14;7.07;;;6.25;;
1829;SDS011;914;48.118;11.600;2022-08-30T08:35:41;8.65;;;5.75;;
1829;SDS011;914;48.118;11.600;2022-08-30T08:38:07;7.55;;;5.80;;
1829;SDS011;914;48.118;11.600;2022-08-30T08:40:34;6.93;;;5.68;;
1829;SDS011;914;48.118;11.600;2022-08-30T08:43:20;6.03;;;5.53;;
1829;SDS011;914;48.118;11.600;2022-08-30T08:46:12;7.10;;;6.40;;
1829;SDS011;914;48.118;11.600;2022-08-30T08:48:42;6.70;;;5.50;;
1829;SDS011;914;48.118;11.600;2022-08-30T08:51:10;6.57;;;5.75;;
1829;SDS011;914;48.118;11.600;2022-08-30T08:53:59;7.40;;;5.65;;
1829;SDS011;914;48.118;11.600;2022-08-30T08:56:30;6.28;;;5.10;;
1829;SDS011;914;48.118;11.600;2022-08-30T08:58:57;6.30;;;5.30;;
1829;SDS011;914;48.118;11.600;2022-08-30T09:01:24;5.85;;;5.13;;
1829;SDS011;914;48.118;11.600;2022-08-30T09:03:55;5.35;;;4.85;;
1829;SDS011;914;48.118;11.600;2022-08-30T09:09:35;6.25;;;5.65;;
1829;SDS011;914;48.118;11.600;2022-08-30T09:12:03;5.95;;;5.22;;
1829;SDS011;914;48.118;11.600;2022-08-30T09:14:32;5.95;;;4.60;;
1829;SDS011;914;48.118;11.600;2022-08-30T09:17:01;9.15;;;5.40;;
1829;SDS011;914;48.118;11.600;2022-08-30T09:20:15;5.38;;;4.50;;
1829;SDS011;914;48.118;11.600;2022-08-30T09:22:24;6.25;;;4.78;;
1829;SDS011;914;48.118;11.600;2022-08-30T09:25:06;5.00;;;4.60;;
1829;SDS011;914;48.118;11.600;2022-08-30T09:27:41;5.18;;;4.70;;
1829;SDS011;914;48.118;11.600;2022-08-30T09:33:19;6.40;;;4.95;;
1829;SDS011;914;48.118;11.600;2022-08-30T09:35:46;5.07;;;4.57;;
1829;SDS011;914;48.118;11.600;2022-08-30T09:38:23;5.40;;;4.90;;
1829;SDS011;914;48.118;11.600;2022-08-30T09:40:58;5.07;;;4.45;;
1829;SDS011;914;48.118;11.600;2022-08-30T09:43:30;4.53;;;4.15;;
1829;SDS011;914;48.118;11.600;2022-08-30T09:48:37;4.78;;;4.38;;
1829;SDS011;914;48.118;11.600;2022-08-30T09:54:23;6.70;;;4.88;;
1829;SDS011;914;48.118;11.600;2022-08-30T09:56:47;4.82;;;4.18;;
1829;SDS011;914;48.118;11.600;2022-08-30T10:25:05;4.80;;;3.97;;
1829;SDS011;914;48.118;11.600;2022-08-30T10:27:54;5.78;;;4.75;;
1829;SDS011;914;48.118;11.600;2022-08-30T10:30:26;5.43;;;4.57;;
1829;SDS011;914;48.118;11.600;2022-08-30T10:33:05;5.43;;;4.93;;
1829;SDS011;914;48.118;11.600;2022-08-30T10:36:09;8.20;;;5.20;;
1829;SDS011;914;48.118;11.600;2022-08-30T10:38:34;5.13;;;4.63;;
1829;SDS011;914;48.118;11.600;2022-08-30T10:41:19;6.22;;;4.47;;
1829;SDS011;914;48.118;11.600;2022-08-30T10:49:16;5.85;;;4.50;;
1829;SDS011;914;48.118;11.600;2022-08-30T10:51:53;6.38;;;3.85;;
1829;SDS011;914;48.118;11.600;2022-08-30T10:54:39;5.00;;;4.40;;
1829;SDS011;914;48.118;11.600;2022-08-30T10:57:14;5.20;;;4.40;;
1829;SDS011;914;48.118;11.600;2022-08-30T10:59:45;5.00;;;3.88;;
1829;SDS011;914;48.118;11.600;2022-08-30T11:05:28;4.55;;;3.50;;
1829;SDS011;914;48.118;11.600;2022-08-30T11:11:04;4.00;;;3.60;;
1829;SDS011;914;48.118;11.600;2022-08-30T11:13:50;3.70;;;3.33;;
1829;SDS011;914;48.118;11.600;2022-08-30T11:16:17;4.15;;;3.75;;
1829;SDS011;914;48.118;11.600;2022-08-30T11:18:44;5.15;;;4.05;;
1829;SDS011;914;48.118;11.600;2022-08-30T11:21:21;6.85;;;4.00;;
1829;SDS011;914;48.118;11.600;2022-08-30T11:50:28;3.53;;;3.22;;
1829;SDS011;914;48.118;11.600;2022-08-30T11:58:24;4.43;;;3.92;;
1829;SDS011;914;48.118;11.600;2022-08-30T12:01:13;4.28;;;3.90;;
1829;SDS011;914;48.118;11.600;2022-08-30T12:14:31;4.15;;;3.25;;
1829;SDS011;914;48.118;11.600;2022-08-30T12:16:58;3.75;;;3.40;;
1829;SDS011;914;48.118;11.600;2022-08-30T12:19:44;3.83;;;3.53;;
1829;SDS011;914;48.118;11.600;2022-08-30T12:22:14;6.20;;;3.70;;
1829;SDS011;914;48.118;11.600;2022-08-30T12:24:42;3.95;;;3.65;;
1829;SDS011;914;48.118;11.600;2022-08-30T12:29:52;6.72;;;4.22;;
1829;SDS011;914;48.118;11.600;2022-08-30T12:32:20;6.40;;;3.97;;
1829;SDS011;914;48.118;11.600;2022-08-30T12:34:56;7.97;;;4.07;;
1829;SDS011;914;48.118;11.600;2022-08-30T12:42:30;5.00;;;3.80;;
1829;SDS011;914;48.118;11.600;2022-08-30T12:44:58;3.90;;;3.60;;
1829;SDS011;914;48.118;11.600;2022-08-30T12:47:31;4.15;;;3.47;;
1829;SDS011;914;48.118;11.600;2022-08-30T12:50:06;4.30;;;3.75;;
1829;SDS011;914;48.118;11.600;2022-08-30T12:52:37;6.10;;;3.85;;
1829;SDS011;914;48.118;11.600;2022-08-30T12:55:16;6.22;;;3.08;;
1829;SDS011;914;48.118;11.600;2022-08-30T13:00:37;6.90;;;3.78;;
1829;SDS011;914;48.118;11.600;2022-08-30T13:03:24;4.60;;;4.00;;
1829;SDS011;914;48.118;11.600;2022-08-30T13:05:56;3.97;;;3.70;;
1829;SDS011;914;48.118;11.600;2022-08-30T13:13:28;12.15;;;3.95;;
1829;SDS011;914;48.118;11.600;2022-08-30T13:15:54;6.65;;;4.18;;
1829;SDS011;914;48.118;11.600;2022-08-30T13:18:24;4.82;;;3.70;;
1829;SDS011;914;48.118;11.600;2022-08-30T13:21:45;6.15;;;3.88;;
1829;SDS011;914;48.118;11.600;2022-08-30T13:23:50;6.35;;;3.47;;
1829;SDS011;914;48.118;11.600;2022-08-30T13:26:20;7.72;;;4.20;;
1829;SDS011;914;48.118;11.600;2022-08-30T13:28:47;4.68;;;4.03;;
1829;SDS011;914;48.118;11.600;2022-08-30T13:31:22;4.22;;;3.80;;
1829;SDS011;914;48.118;11.600;2022-08-30T13:33:49;5.18;;;4.28;;
1829;SDS011;914;48.118;11.600;2022-08-30T13:36:25;7.75;;;4.10;;
1829;SDS011;914;48.118;11.600;2022-08-30T13:38:54;4.32;;;3.92;;
1829;SDS011;914;48.118;11.600;2022-08-30T13:41:21;4.53;;;3.80;;
1829;SDS011;914;48.118;11.600;2022-08-30T13:43:47;4.72;;;4.00;;
1829;SDS011;914;48.118;11.600;2022-08-30T13:46:13;5.63;;;3.90;;
1829;SDS011;914;48.118;11.600;2022-08-30T13:48:40;5.90;;;4.20;;
1829;SDS011;914;48.118;11.600;2022-08-30T13:51:06;4.22;;;3.83;;
1829;SDS011;914;48.118;11.600;2022-08-30T13:53:33;6.57;;;4.05;;
1829;SDS011;914;48.118;11.600;2022-08-30T13:56:00;4.28;;;3.65;;
1829;SDS011;914;48.118;11.600;2022-08-30T13:58:28;4.30;;;3.90;;
1829;SDS011;914;48.118;11.600;2022-08-30T14:00:54;4.82;;;3.88;;
1829;SDS011;914;48.118;11.600;2022-08-30T14:03:20;4.43;;;4.03;;
1829;SDS011;914;48.118;11.600;2022-08-30T14:05:46;5.97;;;3.72;;
1829;SDS011;914;48.118;11.600;2022-08-30T14:08:13;3.85;;;3.55;;
1829;SDS011;914;48.118;11.600;2022-08-30T14:10:40;5.25;;;3.45;;
1829;SDS011;914;48.118;11.600;2022-08-30T14:13:06;5.47;;;3.72;;
1829;SDS011;914;48.118;11.600;2022-08-30T14:15:35;3.95;;;3.60;;
1829;SDS011;914;48.118;11.600;2022-08-30T14:18:02;4.57;;;3.80;;
1829;SDS011;914;48.118;11.600;2022-08-30T14:20:28;4.25;;;3.85;;
1829;SDS011;914;48.118;11.600;2022-08-30T14:22:54;4.35;;;3.95;;
1829;SDS011;914;48.118;11.600;2022-08-30T14:25:19;7.75;;;4.00;;
1829;SDS011;914;48.118;11.600;2022-08-30T14:27:45;4.03;;;3.40;;
1829;SDS011;914;48.118;11.600;2022-08-30T14:30:11;4.00;;;3.67;;
1829;SDS011;914;48.118;11.600;2022-08-30T14:32:37;4.65;;;3.80;;
1829;SDS011;914;48.118;11.600;2022-08-30T14:35:03;5.85;;;3.75;;
1829;SDS011;914;48.118;11.600;2022-08-30T14:37:28;4.15;;;3.60;;
1829;SDS011;914;48.118;11.600;2022-08-30T14:39:55;8.90;;;3.80;;
1829;SDS011;914;48.118;11.600;2022-08-30T14:42:21;6.45;;;3.78;;
1829;SDS011;914;48.118;11.600;2022-08-30T14:44:46;4.75;;;3.85;;
1829;SDS011;914;48.118;11.600;2022-08-30T14:47:12;3.80;;;3.50;;
1829;SDS011;914;48.118;11.600;2022-08-30T14:49:39;3.97;;;3.58;;
1829;SDS011;914;48.118;11.600;2022-08-30T14:52:05;4.38;;;3.55;;
1829;SDS011;914;48.118;11.600;2022-08-30T14:54:31;4.93;;;3.10;;
1829;SDS011;914;48.118;11.600;2022-08-30T14:56:59;6.18;;;3.38;;
1829;SDS011;914;48.118;11.600;2022-08-30T14:59:25;5.63;;;3.50;;
1829;SDS011;914;48.118;11.600;2022-08-30T15:01:51;7.18;;;3.40;;
1829;SDS011;914;48.118;11.600;2022-08-30T15:04:17;6.15;;;3.45;;
1829;SDS011;914;48.118;11.600;2022-08-30T15:06:45;3.72;;;3.42;;
1829;SDS011;914;48.118;11.600;2022-08-30T15:09:13;5.50;;;3.20;;
1829;SDS011;914;48.118;11.600;2022-08-30T15:11:42;6.05;;;3.40;;
1829;SDS011;914;48.118;11.600;2022-08-30T15:14:09;5.13;;;4.25;;
1829;SDS011;914;48.118;11.600;2022-08-30T15:16:36;6.72;;;3.63;;
1829;SDS011;914;48.118;11.600;2022-08-30T15:19:04;8.68;;;3.95;;
1829;SDS011;914;48.118;11.600;2022-08-30T15:21:32;6.57;;;3.70;;
1829;SDS011;914;48.118;11.600;2022-08-30T15:24:03;4.55;;;3.63;;
1829;SDS011;914;48.118;11.600;2022-08-30T15:26:31;5.30;;;3.28;;
1829;SDS011;914;48.118;11.600;2022-08-30T15:28:58;4.38;;;3.17;;
1829;SDS011;914;48.118;11.600;2022-08-30T15:31:25;4.25;;;3.17;;
1829;SDS011;914;48.118;11.600;2022-08-30T15:33:57;5.00;;;3.58;;
1829;SDS011;914;48.118;11.600;2022-08-30T15:36:24;4.25;;;3.35;;
1829;SDS011;914;48.118;11.600;2022-08-30T15:38:51;3.40;;;3.10;;
1829;SDS011;914;48.118;11.600;2022-08-30T15:41:21;4.40;;;3.10;;
1829;SDS011;914;48.118;11.600;2022-08-30T15:43:47;3.70;;;3.10;;
1829;SDS011;914;48.118;11.600;2022-08-30T15:46:23;4.28;;;3.15;;
1829;SDS011;914;48.118;11.600;2022-08-30T15:48:53;3.58;;;3.28;;
1829;SDS011;914;48.118;11.600;2022-08-30T15:51:21;4.68;;;3.17;;
1829;SDS011;914;48.118;11.600;2022-08-30T15:53:48;3.65;;;3.35;;
1829;SDS011;914;48.118;11.600;2022-08-30T15:56:14;6.85;;;3.70;;
1829;SDS011;914;48.118;11.600;2022-08-30T15:58:40;6.32;;;3.50;;
1829;SDS011;914;48.118;11.600;2022-08-30T16:01:07;3.72;;;3.42;;
1829;SDS011;914;48.118;11.600;2022-08-30T16:03:33;3.50;;;3.30;;
1829;SDS011;914;48.118;11.600;2022-08-30T16:06:00;3.90;;;3.15;;
1829;SDS011;914;48.118;11.600;2022-08-30T16:08:27;5.85;;;3.00;;
1829;SDS011;914;48.118;11.600;2022-08-30T16:10:53;5.00;;;3.10;;
1829;SDS011;914;48.118;11.600;2022-08-30T16:13:19;3.55;;;3.10;;
1829;SDS011;914;48.118;11.600;2022-08-30T16:15:45;4.43;;;3.47;;
1829;SDS011;914;48.118;11.600;2022-08-30T16:18:11;3.70;;;3.13;;
1829;SDS011;914;48.118;11.600;2022-08-30T16:20:39;4.22;;;3.00;;
1829;SDS011;914;48.118;11.600;2022-08-30T16:23:06;3.60;;;3.30;;
1829;SDS011;914;48.118;11.600;2022-08-30T16:25:33;4.10;;;3.40;;
1829;SDS011;914;48.118;11.600;2022-08-30T16:27:59;5.82;;;3.50;;
1829;SDS011;914;48.118;11.600;2022-08-30T16:30:24;3.80;;;3.30;;
1829;SDS011;914;48.118;11.600;2022-08-30T16:32:50;3.45;;;3.15;;
1829;SDS011;914;48.118;11.600;2022-08-30T16:35:16;4.22;;;3.50;;
1829;SDS011;914;48.118;11.600;2022-08-30T16:37:42;5.43;;;3.47;;
1829;SDS011;914;48.118;11.600;2022-08-30T16:40:08;3.50;;;3.20;;
1829;SDS011;914;48.118;11.600;2022-08-30T16:42:34;3.40;;;3.10;;
1829;SDS011;914;48.118;11.600;2022-08-30T16:45:00;3.95;;;3.28;;
1829;SDS011;914;48.118;11.600;2022-08-30T16:47:25;8.90;;;3.60;;
1829;SDS011;914;48.118;11.600;2022-08-30T16:49:51;3.63;;;3.33;;
1829;SDS011;914;48.118;11.600;2022-08-30T16:52:19;4.38;;;3.30;;
1829;SDS011;914;48.118;11.600;2022-08-30T16:54:44;5.32;;;3.55;;
1829;SDS011;914;48.118;11.600;2022-08-30T16:57:10;4.53;;;3.80;;
1829;SDS011;914;48.118;11.600;2022-08-30T16:59:36;4.63;;;3.42;;
1829;SDS011;914;48.118;11.600;2022-08-30T17:02:02;4.88;;;3.72;;
1829;SDS011;914;48.118;11.600;2022-08-30T17:04:28;6.28;;;3.55;;
1829;SDS011;914;48.118;11.600;2022-08-30T17:06:53;5.55;;;3.25;;
1829;SDS011;914;48.118;11.600;2022-08-30T17:09:19;4.07;;;3.67;;